Time;durP1;ratioP1;P1;durP2;ratioP2;P2;SDS_P1;SDS_P2;PMS_P1;PMS_P2;Temp;Humidity;BMP_temperature;BMP_pressure;BME280_temperature;BME280_humidity;BME280_pressure;Samples;Min_cycle;Max_cycle;Signal;HPM_P1;HPM_P2
2022/02/07 00:01:40;;;;;;;0.00;0.00;;;;;;;7.85;65.61;98856.59;6276910;22;20471;-81
2022/02/07 00:04:11;;;;;;;0.00;0.00;;;;;;;7.80;65.79;98856.56;6272883;22;19992;-80
2022/02/07 00:06:45;;;;;;;0.00;0.00;;;;;;;7.86;65.45;98858.22;6269209;22;20003;-81
2022/02/07 00:15:08;;;;;;;0.00;0.00;;;;;;;7.78;65.31;98850.72;6183681;22;20052;-80
2022/02/07 00:17:49;;;;;;;0.00;0.00;;;;;;;7.80;65.33;98844.06;6316353;22;20020;-80
2022/02/07 00:20:18;;;;;;;0.00;0.00;;;;;;;7.85;65.02;98844.09;6183650;22;20007;-78
2022/02/07 00:22:51;;;;;;;0.22;0.22;;;;;;;7.83;65.16;98840.09;6183437;23;20049;-79
2022/02/07 00:25:18;;;;;;;0.05;0.05;;;;;;;7.84;64.99;98833.72;6191842;22;20084;-78
2022/02/07 00:27:47;;;;;;;0.00;0.00;;;;;;;7.84;65.31;98828.38;6182887;22;20053;-78
2022/02/07 00:30:23;;;;;;;0.00;0.00;;;;;;;7.82;65.51;98820.66;6182694;23;20020;-79
2022/02/07 00:32:54;;;;;;;0.15;0.15;;;;;;;7.80;64.94;98817.47;6182769;22;19996;-80
2022/02/07 00:38:32;;;;;;;0.00;0.00;;;;;;;7.73;65.02;98795.63;6221752;22;20012;-79
2022/02/07 00:43:59;;;;;;;0.00;0.00;;;;;;;7.67;64.96;98796.66;6241828;23;20054;-78
2022/02/07 00:46:33;;;;;;;0.00;0.00;;;;;;;7.62;65.31;98783.34;6190615;23;20107;-78
2022/02/07 01:05:51;;;;;;;0.00;0.00;;;;;;;7.42;67.07;98742.31;6179684;22;20030;-81
2022/02/07 01:08:41;;;;;;;0.00;0.00;;;;;;;7.41;66.88;98730.09;6131973;23;20022;-82
2022/02/07 01:14:56;;;;;;;0.10;0.10;;;;;;;7.39;67.76;98718.88;6158684;23;20083;-81
2022/02/07 01:58:03;;;;;;;0.55;0.55;;;;;;;7.52;67.71;98614.59;6152936;23;20089;-80
2022/02/07 02:00:30;;;;;;;0.00;0.00;;;;;;;7.52;67.75;98614.59;6127197;23;20024;-79
2022/02/07 02:02:55;;;;;;;0.00;0.00;;;;;;;7.53;67.84;98615.41;6126107;23;20008;-78
2022/02/07 02:05:21;;;;;;;0.00;0.00;;;;;;;7.59;67.06;98617.03;6126072;23;20374;-79
2022/02/07 02:07:49;;;;;;;0.00;0.00;;;;;;;7.57;66.96;98608.50;6119553;23;20101;-78
2022/02/07 02:10:14;;;;;;;0.00;0.00;;;;;;;7.66;66.88;98619.41;6121748;23;20454;-78
2022/02/07 02:15:34;;;;;;;0.00;0.00;;;;;;;7.74;66.78;98602.09;6121444;23;20014;-79
2022/02/07 02:32:39;;;;;;;0.05;0.05;;;;;;;7.82;65.83;98572.25;6121084;23;20056;-76
2022/02/07 02:47:19;;;;;;;0.00;0.00;;;;;;;8.01;64.94;98567.97;6122308;23;20064;-79
2022/02/07 02:49:49;;;;;;;0.00;0.00;;;;;;;7.99;65.36;98561.31;6120082;23;20006;-79
2022/02/07 02:52:14;;;;;;;0.10;0.10;;;;;;;8.04;64.60;98565.84;6120223;22;20461;-79
2022/02/07 02:54:40;;;;;;;0.00;0.00;;;;;;;8.05;64.53;98573.53;6119438;23;20085;-78
2022/02/07 02:57:05;;;;;;;0.00;0.00;;;;;;;7.98;64.12;98570.38;6121065;23;20336;-80
2022/02/07 02:59:31;;;;;;;0.38;0.38;;;;;;;7.91;64.74;98565.34;6122003;23;20051;-79
2022/02/07 03:01:56;;;;;;;0.00;0.00;;;;;;;7.85;64.46;98559.22;6119442;22;20006;-78
2022/02/07 03:04:22;;;;;;;0.00;0.00;;;;;;;7.81;64.38;98549.38;6120835;23;20398;-78
2022/02/07 03:06:49;;;;;;;0.00;0.00;;;;;;;7.79;64.39;98554.97;6118941;23;20013;-79
2022/02/07 03:09:16;;;;;;;0.00;0.00;;;;;;;7.72;64.24;98549.13;6120075;22;20037;-79
2022/02/07 03:11:41;;;;;;;0.00;0.00;;;;;;;7.73;64.16;98552.59;6120276;22;20002;-79
2022/02/07 03:14:08;;;;;;;0.00;0.00;;;;;;;7.70;64.61;98548.59;6119166;22;20392;-78
2022/02/07 03:16:39;;;;;;;0.00;0.00;;;;;;;7.65;64.37;98553.94;6119768;23;20033;-81
2022/02/07 03:19:10;;;;;;;0.00;0.00;;;;;;;7.60;64.21;98545.94;6096551;23;20629;-79
2022/02/07 03:21:36;;;;;;;0.00;0.00;;;;;;;7.51;64.72;98543.03;6121163;22;20013;-79
2022/02/07 03:24:02;;;;;;;0.00;0.00;;;;;;;7.46;65.07;98535.84;6119780;23;20006;-79
2022/02/07 03:26:35;;;;;;;0.00;0.00;;;;;;;7.47;64.54;98532.13;6120366;22;20006;-78
2022/02/07 03:29:00;;;;;;;0.00;0.00;;;;;;;7.43;65.25;98538.25;6120367;22;20006;-78
2022/02/07 03:31:27;;;;;;;0.00;0.00;;;;;;;7.44;64.63;98540.63;6121663;23;20029;-78
2022/02/07 03:33:52;;;;;;;0.00;0.00;;;;;;;7.42;64.54;98540.13;6119958;23;20417;-78
2022/02/07 03:36:19;;;;;;;0.00;0.00;;;;;;;7.41;63.90;98541.19;6120310;23;20002;-77
2022/02/07 03:38:45;;;;;;;0.00;0.00;;;;;;;7.37;63.97;98540.09;6119871;23;20431;-78
2022/02/07 03:41:11;;;;;;;0.00;0.00;;;;;;;7.32;63.53;98535.63;6120379;22;20013;-78
2022/02/07 03:43:36;;;;;;;0.00;0.00;;;;;;;7.34;63.37;98535.34;6120508;23;20017;-78
2022/02/07 03:46:02;;;;;;;0.00;0.00;;;;;;;7.27;62.96;98540.13;6120710;23;20008;-78
2022/02/07 03:48:28;;;;;;;0.00;0.00;;;;;;;7.19;63.07;98534.28;6120314;23;20005;-78
2022/02/07 03:50:53;;;;;;;0.00;0.00;;;;;;;7.13;63.08;98543.31;6118972;22;20002;-79
2022/02/07 03:53:19;;;;;;;0.10;0.10;;;;;;;7.07;62.71;98530.28;6120351;23;20096;-78
2022/02/07 03:55:44;;;;;;;0.00;0.00;;;;;;;6.99;63.09;98536.91;6118717;23;20427;-78
2022/02/07 03:58:09;;;;;;;0.00;0.00;;;;;;;6.93;62.51;98535.31;6119370;23;20435;-78
2022/02/07 04:00:36;;;;;;;0.00;0.00;;;;;;;6.86;62.41;98525.75;6119568;22;20014;-78
2022/02/07 04:03:06;;;;;;;0.00;0.00;;;;;;;6.81;62.84;98525.75;6119159;22;20020;-78
2022/02/07 04:05:48;;;;;;;0.00;0.00;;;;;;;6.71;62.33;98515.09;6119413;22;20097;-78
2022/02/07 04:08:19;;;;;;;0.00;0.00;;;;;;;6.62;62.27;98522.78;6120520;23;20386;-78
2022/02/07 04:11:01;;;;;;;0.00;0.00;;;;;;;6.52;62.43;98520.91;6119226;22;20017;-78
2022/02/07 04:14:03;;;;;;;0.00;0.00;;;;;;;6.38;62.45;98514.47;6118736;23;20026;-80
2022/02/07 04:16:35;;;;;;;0.10;0.10;;;;;;;6.29;62.86;98506.22;6123707;23;20461;-81
2022/02/07 04:19:20;;;;;;;0.00;0.00;;;;;;;6.17;62.60;98509.09;6119317;23;20077;-79
2022/02/07 04:21:48;;;;;;;0.00;0.00;;;;;;;6.02;62.93;98499.22;6119134;23;20009;-79
2022/02/07 04:24:14;;;;;;;;;;;;;;;5.94;63.20;98497.03;6119367;22;20013;-78
2022/02/07 04:26:39;;;;;;;0.00;0.00;;;;;;;5.83;63.69;98492.72;6119403;23;19983;-78
2022/02/07 04:29:06;;;;;;;0.00;0.00;;;;;;;5.73;63.61;98488.19;6118580;23;20348;-79
2022/02/07 04:31:31;;;;;;;0.00;0.00;;;;;;;5.64;64.47;98481.75;6118998;23;20002;-79
2022/02/07 04:34:12;;;;;;;0.00;0.00;;;;;;;5.56;64.35;98485.69;6118583;23;20137;-81
2022/02/07 04:39:59;;;;;;;0.00;0.00;;;;;;;5.29;64.68;98492.69;6121224;23;20044;-79
2022/02/07 04:42:26;;;;;;;0.00;0.00;;;;;;;5.21;65.00;98485.22;6118383;23;20001;-78
2022/02/07 04:53:25;;;;;;;0.20;0.20;;;;;;;4.92;66.82;98476.75;6124360;23;20056;-80
2022/02/07 04:59:05;;;;;;;0.00;0.00;;;;;;;4.77;67.28;98474.78;6126687;23;20013;-81
2022/02/07 05:01:49;;;;;;;0.00;0.00;;;;;;;4.60;68.68;98478.34;6118754;23;20085;-79
2022/02/07 05:04:39;;;;;;;0.52;0.52;;;;;;;4.54;69.02;98476.72;6119385;23;20009;-79
2022/02/07 05:15:16;;;;;;;0.00;0.00;;;;;;;4.40;69.78;98478.16;6119117;23;20008;-77
2022/02/07 05:17:42;;;;;;;0.00;0.00;;;;;;;4.40;70.06;98480.78;6117264;23;20093;-77
2022/02/07 05:20:09;;;;;;;0.00;0.00;;;;;;;4.41;69.77;98479.75;6116958;23;20111;-78
2022/02/07 05:22:36;;;;;;;0.00;0.00;;;;;;;4.41;69.49;98483.19;6117677;22;20557;-78
2022/02/07 05:25:02;;;;;;;0.00;0.00;;;;;;;4.45;69.32;98484.28;6119863;22;20002;-77
2022/02/07 05:27:28;;;;;;;0.00;0.00;;;;;;;4.46;68.89;98477.16;6101723;23;20013;-80
2022/02/07 05:29:53;;;;;;;0.00;0.00;;;;;;;4.41;68.96;98477.91;6129548;23;20002;-78
2022/02/07 07:46:28;;;;;;;0.45;0.45;;;;;;;9.14;61.78;98445.78;5954346;24;20117;-82
2022/02/07 08:12:36;;;;;;;0.00;0.00;;;;;;;9.80;60.75;98408.78;6144320;23;20082;-86
2022/02/07 08:18:35;;;;;;;0.00;0.00;;;;;;;9.96;60.04;98398.72;6210210;23;20499;-87
2022/02/07 08:21:26;;;;;;;0.00;0.00;;;;;;;9.99;60.20;98403.47;6236796;22;20016;-86
2022/02/07 08:27:31;;;;;;;0.20;0.20;;;;;;;10.22;60.14;98399.16;6273105;22;20014;-86
2022/02/07 08:29:58;;;;;;;0.20;0.20;;;;;;;10.37;59.42;98392.03;6246259;22;20437;-87
2022/02/07 08:53:37;;;;;;;0.30;0.30;;;;;;;9.87;59.51;98363.81;6142344;23;20008;-84
2022/02/07 08:57:10;;;;;;;0.00;0.00;;;;;;;9.89;59.98;98360.88;6154051;23;20009;-85
2022/02/07 09:12:47;;;;;;;0.00;0.00;;;;;;;10.23;60.74;98343.84;6181101;23;20012;-86
2022/02/07 09:15:40;;;;;;;2.03;1.00;;;;;;;10.43;60.10;98334.72;6156801;23;20385;-86
2022/02/07 09:18:07;;;;;;;0.35;0.35;;;;;;;10.59;58.78;98327.25;6272736;22;20074;-87
2022/02/07 09:20:43;;;;;;;0.00;0.00;;;;;;;10.67;57.98;98320.44;6248047;22;20020;-86
2022/02/07 09:23:09;;;;;;;1.10;0.55;;;;;;;10.72;58.53;98315.00;6248578;22;20411;-88
2022/02/07 09:25:34;;;;;;;0.73;0.73;;;;;;;10.81;58.61;98313.22;6248668;22;20011;-86
2022/02/07 09:28:00;;;;;;;0.57;0.57;;;;;;;10.88;58.51;98300.25;6248234;22;20050;-87
2022/02/07 09:30:27;;;;;;;1.48;1.48;;;;;;;10.97;58.38;98297.66;6248654;22;20448;-85
2022/02/07 09:32:53;;;;;;;0.10;0.10;;;;;;;11.05;58.04;98290.84;6247972;22;20034;-85
2022/02/07 09:35:20;;;;;;;0.13;0.13;;;;;;;11.15;57.67;98290.63;6248553;22;20003;-85
2022/02/07 09:37:46;;;;;;;0.00;0.00;;;;;;;11.25;57.49;98286.97;6273940;22;20010;-85
2022/02/07 09:40:14;;;;;;;0.10;0.10;;;;;;;11.34;57.60;98284.41;6248720;22;20004;-85
2022/02/07 09:42:42;;;;;;;0.38;0.30;;;;;;;11.39;57.15;98270.91;6248243;22;20007;-86
2022/02/07 09:45:18;;;;;;;1.63;1.38;;;;;;;11.47;56.94;98262.13;6248227;22;20027;-86
2022/02/07 09:47:44;;;;;;;0.10;0.10;;;;;;;11.61;56.41;98250.59;6273980;22;20086;-85
2022/02/07 09:50:09;;;;;;;0.28;0.28;;;;;;;11.73;55.45;98245.53;6248478;22;20030;-86
2022/02/07 09:52:35;;;;;;;0.10;0.10;;;;;;;11.80;54.73;98240.56;6248416;22;20086;-86
2022/02/07 09:55:01;;;;;;;0.40;0.40;;;;;;;11.96;54.57;98232.13;6247964;22;20004;-85
2022/02/07 09:57:27;;;;;;;0.00;0.00;;;;;;;12.07;54.99;98222.00;6273262;22;20016;-85
2022/02/07 09:59:54;;;;;;;0.10;0.10;;;;;;;12.16;54.75;98220.16;6247469;22;20003;-85
2022/02/07 10:02:40;;;;;;;0.00;0.00;;;;;;;12.29;53.77;98208.56;6248060;22;20360;-85
2022/02/07 10:05:11;;;;;;;0.10;0.10;;;;;;;12.41;53.09;98204.50;6247971;22;20428;-84
2022/02/07 10:07:53;;;;;;;0.73;0.73;;;;;;;12.52;53.14;98186.25;6248843;22;20008;-84
2022/02/07 10:15:30;;;;;;;0.00;0.00;;;;;;;12.86;52.27;98169.47;6275672;22;20011;-85
2022/02/07 10:37:44;;;;;;;0.00;0.00;;;;;;;13.64;50.88;98116.16;6274446;22;20093;-85
2022/02/07 10:40:09;;;;;;;0.10;0.10;;;;;;;13.70;51.23;98110.28;6273890;22;20003;-85
2022/02/07 10:45:32;;;;;;;0.10;0.10;;;;;;;13.80;51.53;98098.41;6265796;22;20004;-85
2022/02/07 10:47:59;;;;;;;0.00;0.00;;;;;;;13.79;52.03;98088.75;6247441;22;20012;-85
2022/02/07 10:50:25;;;;;;;0.15;0.15;;;;;;;13.86;52.36;98091.75;6247729;22;20336;-85
2022/02/07 10:52:59;;;;;;;0.25;0.25;;;;;;;13.89;52.61;98077.69;6247424;22;20011;-85
2022/02/07 10:55:35;;;;;;;0.30;0.30;;;;;;;13.98;53.04;98068.81;6247637;22;20004;-87
2022/02/07 10:58:06;;;;;;;0.00;0.00;;;;;;;14.09;52.56;98078.09;6247422;22;20008;-86
2022/02/07 11:00:41;;;;;;;0.00;0.00;;;;;;;14.10;52.47;98074.28;6247559;22;20407;-85
2022/02/07 11:03:14;;;;;;;1.00;0.38;;;;;;;14.14;52.76;98064.47;6247429;22;20012;-87
2022/02/07 11:05:49;;;;;;;0.10;0.10;;;;;;;14.17;52.70;98047.69;6247525;22;20006;-86
2022/02/07 11:08:42;;;;;;;0.25;0.25;;;;;;;14.21;52.37;98051.28;6247719;22;20007;-87
2022/02/07 11:16:22;;;;;;;0.33;0.33;;;;;;;14.40;52.82;98026.69;6274093;22;20078;-85
2022/02/07 11:19:05;;;;;;;0.07;0.07;;;;;;;14.51;52.91;98010.94;6247072;22;20432;-86
2022/02/07 11:24:34;;;;;;;0.00;0.00;;;;;;;14.73;51.40;97992.91;6274078;22;20008;-84
2022/02/07 11:27:24;;;;;;;0.00;0.00;;;;;;;14.82;50.95;98000.94;6246718;22;20007;-85
2022/02/07 11:29:50;;;;;;;0.00;0.00;;;;;;;14.85;50.44;97995.66;6272162;22;20015;-84
2022/02/07 11:32:45;;;;;;;0.20;0.20;;;;;;;14.94;50.77;97981.34;6247555;22;20016;-83
2022/02/07 11:35:11;;;;;;;0.45;0.45;;;;;;;15.00;50.47;97980.81;6271783;22;20031;-84
2022/02/07 11:37:37;;;;;;;0.00;0.00;;;;;;;15.12;50.08;97981.97;6247260;22;20107;-84
2022/02/07 11:40:30;;;;;;;0.10;0.10;;;;;;;15.20;50.12;97981.88;6247127;22;20039;-83
2022/02/07 11:43:12;;;;;;;0.63;0.63;;;;;;;15.32;49.99;97980.34;6235604;22;20432;-83
2022/02/07 11:45:53;;;;;;;0.00;0.00;;;;;;;15.41;49.90;97983.72;6247119;22;20399;-83
2022/02/07 11:48:46;;;;;;;0.00;0.00;;;;;;;15.51;49.63;97975.22;6247272;22;20007;-83
2022/02/07 11:51:34;;;;;;;0.00;0.00;;;;;;;15.59;49.28;97965.44;6235317;22;20004;-83
2022/02/07 11:54:03;;;;;;;0.00;0.00;;;;;;;15.63;48.20;97963.63;6247127;22;20039;-83
2022/02/07 11:56:48;;;;;;;;;;;;;;;15.66;48.10;97951.41;6247812;22;20094;-83
2022/02/07 11:59:28;;;;;;;0.00;0.00;;;;;;;15.70;47.34;97949.63;6247081;22;20325;-84
2022/02/07 12:02:15;;;;;;;0.10;0.10;;;;;;;15.68;47.33;97939.19;6246827;22;20011;-84
2022/02/07 12:04:51;;;;;;;0.20;0.20;;;;;;;15.76;47.28;97936.69;6247044;22;20039;-84
2022/02/07 12:07:22;;;;;;;0.10;0.10;;;;;;;15.84;47.18;97936.63;6246954;22;20014;-85
2022/02/07 12:10:57;;;;;;;0.00;0.00;;;;;;;15.86;47.14;97922.03;6246851;22;20514;-83
2022/02/07 12:12:53;;;;;;;0.10;0.10;;;;;;;15.87;47.31;97926.28;6253314;22;20007;-84
2022/02/07 12:15:27;;;;;;;0.00;0.00;;;;;;;15.87;47.30;97921.69;6247020;22;20088;-84
2022/02/07 12:17:57;;;;;;;0.03;0.03;;;;;;;15.84;46.75;97908.88;6246830;22;20004;-84
2022/02/07 12:20:34;;;;;;;0.00;0.00;;;;;;;15.85;47.45;97905.06;6246252;22;20026;-84
2022/02/07 12:23:08;;;;;;;0.22;0.20;;;;;;;15.83;47.47;97901.91;6246307;22;20014;-83
2022/02/07 12:25:52;;;;;;;0.00;0.00;;;;;;;15.82;47.62;97894.94;6246519;22;20078;-84
2022/02/07 12:31:02;;;;;;;0.00;0.00;;;;;;;15.80;46.24;97873.69;6274008;22;20000;-86
2022/02/07 12:33:29;;;;;;;0.00;0.00;;;;;;;15.80;46.33;97876.38;6247062;22;20011;-84
2022/02/07 12:35:57;;;;;;;0.00;0.00;;;;;;;15.75;46.29;97882.00;6246300;22;20004;-84
2022/02/07 12:38:33;;;;;;;0.25;0.22;;;;;;;15.74;45.91;97879.66;6272521;22;20004;-84
2022/02/07 12:41:00;;;;;;;0.10;0.10;;;;;;;15.74;45.64;97883.13;6246408;22;20000;-84
2022/02/07 12:43:26;;;;;;;0.00;0.00;;;;;;;15.72;45.55;97882.69;6246758;22;20003;-84
2022/02/07 12:45:52;;;;;;;0.45;0.32;;;;;;;15.75;46.15;97884.69;6246671;22;20471;-84
2022/02/07 12:48:25;;;;;;;0.00;0.00;;;;;;;15.77;46.34;97878.97;6246953;22;20012;-84
2022/02/07 12:50:54;;;;;;;0.63;0.63;;;;;;;15.76;46.26;97885.47;6272345;22;20008;-84
2022/02/07 12:53:21;;;;;;;0.00;0.00;;;;;;;15.76;46.53;97875.50;6246921;22;20091;-83
2022/02/07 12:55:55;;;;;;;2.63;0.85;;;;;;;15.73;46.01;97867.31;6247156;22;20004;-84
2022/02/07 12:58:22;;;;;;;0.00;0.00;;;;;;;15.74;45.69;97875.03;6246713;22;20007;-83
2022/02/07 13:00:48;;;;;;;0.20;0.20;;;;;;;15.71;45.84;97873.03;6246741;22;20003;-84
2022/02/07 13:03:13;;;;;;;0.00;0.00;;;;;;;15.65;45.22;97852.84;6246716;22;20010;-84
2022/02/07 13:05:39;;;;;;;0.00;0.00;;;;;;;15.62;45.07;97866.97;6246537;22;20008;-84
2022/02/07 13:08:05;;;;;;;0.00;0.00;;;;;;;15.57;45.13;97865.28;6246417;22;20437;-84
2022/02/07 13:10:36;;;;;;;0.00;0.00;;;;;;;15.56;45.31;97877.19;6272133;22;20004;-84
2022/02/07 13:15:35;;;;;;;0.00;0.00;;;;;;;15.52;46.00;97868.22;6273656;22;20012;-84
2022/02/07 13:18:05;;;;;;;0.00;0.00;;;;;;;15.54;45.96;97874.06;6246178;22;20004;-84
2022/02/07 13:20:31;;;;;;;0.00;0.00;;;;;;;15.50;47.24;97868.56;6246301;22;20027;-84
2022/02/07 13:23:04;;;;;;;0.00;0.00;;;;;;;15.46;47.56;97859.56;6246581;22;20012;-85
2022/02/07 13:25:58;;;;;;;1.00;0.95;;;;;;;15.39;47.72;97867.41;6246617;22;20073;-84
2022/02/07 13:28:27;;;;;;;0.08;0.08;;;;;;;15.33;47.65;97850.72;6242802;22;20007;-83
2022/02/07 13:30:58;;;;;;;0.00;0.00;;;;;;;15.28;47.51;97847.44;6246374;22;20011;-84
2022/02/07 13:33:24;;;;;;;0.00;0.00;;;;;;;15.24;48.04;97855.41;6246490;22;20035;-83
2022/02/07 13:35:55;;;;;;;0.00;0.00;;;;;;;15.24;48.62;97854.63;6246615;22;20004;-83
2022/02/07 13:38:22;;;;;;;0.00;0.00;;;;;;;15.23;48.87;97851.13;6246726;22;20003;-83
2022/02/07 13:40:59;;;;;;;0.70;0.40;;;;;;;15.23;49.16;97843.06;6246503;22;20004;-83
2022/02/07 13:43:27;;;;;;;0.08;0.08;;;;;;;15.18;48.97;97835.22;6246362;22;20015;-83
2022/02/07 13:45:56;;;;;;;0.17;0.17;;;;;;;15.17;49.13;97844.41;6245673;22;20032;-84
2022/02/07 13:48:24;;;;;;;0.00;0.00;;;;;;;15.15;49.25;97836.66;6246208;22;20007;-83
2022/02/07 13:50:53;;;;;;;0.00;0.00;;;;;;;15.14;49.13;97840.47;6246123;22;20004;-84
2022/02/07 13:53:21;;;;;;;0.00;0.00;;;;;;;15.15;49.00;97836.66;6246135;22;20004;-84
2022/02/07 13:55:58;;;;;;;0.00;0.00;;;;;;;15.13;48.74;97825.44;6246047;22;20031;-83
2022/02/07 13:58:40;;;;;;;0.00;0.00;;;;;;;15.11;49.11;97824.22;6247517;22;20006;-83
2022/02/07 14:01:10;;;;;;;0.63;0.47;;;;;;;15.09;48.86;97823.75;6247564;22;20027;-83
2022/02/07 14:03:42;;;;;;;0.30;0.30;;;;;;;15.02;48.25;97825.09;6248143;22;20022;-84
2022/02/07 14:06:11;;;;;;;0.00;0.00;;;;;;;15.01;48.61;97814.66;6247536;22;20114;-84
2022/02/07 14:08:47;;;;;;;0.00;0.00;;;;;;;14.97;48.59;97809.16;6247941;22;19999;-84
2022/02/07 14:11:15;;;;;;;0.00;0.00;;;;;;;14.93;48.71;97808.28;6247604;22;20460;-84
2022/02/07 14:13:42;;;;;;;0.00;0.00;;;;;;;14.95;48.53;97803.34;6247370;22;20015;-84
2022/02/07 14:16:09;;;;;;;0.00;0.00;;;;;;;14.93;48.76;97808.28;6247835;22;20008;-85
2022/02/07 14:18:45;;;;;;;0.20;0.20;;;;;;;14.90;48.94;97817.00;6248266;22;20029;-85
2022/02/07 14:21:11;;;;;;;0.00;0.00;;;;;;;14.91;48.72;97807.03;6247550;22;20011;-85
2022/02/07 14:23:38;;;;;;;0.00;0.00;;;;;;;14.84;48.99;97805.69;6247796;22;20008;-85
2022/02/07 14:26:04;;;;;;;0.00;0.00;;;;;;;14.78;49.62;97804.34;6247431;22;20373;-85
2022/02/07 14:28:31;;;;;;;0.00;0.00;;;;;;;14.70;49.22;97800.59;6247784;22;20012;-85
2022/02/07 14:30:58;;;;;;;0.00;0.00;;;;;;;14.63;49.64;97791.50;6247497;22;20007;-85
2022/02/07 14:33:25;;;;;;;0.00;0.00;;;;;;;14.60;50.18;97797.53;6247831;22;20011;-85
2022/02/07 14:35:50;;;;;;;0.00;0.00;;;;;;;14.56;50.00;97792.81;6247789;22;20096;-85
2022/02/07 14:38:16;;;;;;;0.10;0.10;;;;;;;14.52;50.38;97785.75;6247602;22;20000;-85
2022/02/07 14:40:42;;;;;;;0.00;0.00;;;;;;;14.48;50.61;97782.16;6247968;22;20038;-85
2022/02/07 14:43:13;;;;;;;0.00;0.00;;;;;;;14.45;50.88;97780.91;6247683;22;20022;-85
2022/02/07 14:45:43;;;;;;;0.00;0.00;;;;;;;14.39;51.18;97782.22;6247975;22;20006;-85
2022/02/07 14:48:10;;;;;;;0.00;0.00;;;;;;;14.34;51.28;97779.75;6273204;22;20004;-84
2022/02/07 14:50:35;;;;;;;0.00;0.00;;;;;;;14.30;51.28;97778.84;6247149;22;20007;-85
2022/02/07 14:53:02;;;;;;;0.00;0.00;;;;;;;14.27;51.58;97766.06;6247472;22;20004;-85
2022/02/07 14:55:28;;;;;;;0.00;0.00;;;;;;;14.24;52.18;97757.56;6247508;22;20034;-83
2022/02/07 14:57:54;;;;;;;0.08;0.08;;;;;;;14.20;52.34;97750.47;6247524;22;20039;-83
2022/02/07 15:00:26;;;;;;;0.00;0.00;;;;;;;14.12;52.68;97745.97;6247113;22;20328;-84
2022/02/07 15:02:51;;;;;;;0.00;0.00;;;;;;;14.02;53.51;97744.47;6247652;22;20004;-84
2022/02/07 15:05:18;;;;;;;0.00;0.00;;;;;;;13.92;54.23;97732.22;6247400;22;20526;-86
2022/02/07 15:07:44;;;;;;;0.00;0.00;;;;;;;13.89;54.40;97740.94;6247598;22;20087;-85
2022/02/07 15:10:10;;;;;;;0.30;0.30;;;;;;;13.80;55.15;97738.34;6246652;22;20035;-85
2022/02/07 15:12:36;;;;;;;0.10;0.10;;;;;;;13.70;55.29;97736.06;6247742;22;20360;-85
2022/02/07 15:15:04;;;;;;;0.28;0.28;;;;;;;13.64;55.84;97730.09;6272799;22;20004;-86
2022/02/07 15:17:31;;;;;;;0.82;0.82;;;;;;;13.61;55.93;97736.91;6247221;22;20003;-85
2022/02/07 15:19:59;;;;;;;0.20;0.20;;;;;;;13.55;56.28;97727.47;6246657;22;20455;-85
2022/02/07 15:22:26;;;;;;;0.00;0.00;;;;;;;13.51;56.64;97723.88;6247359;22;20003;-86
2022/02/07 15:24:55;;;;;;;0.00;0.00;;;;;;;13.47;56.84;97720.25;6247509;22;20011;-85
2022/02/07 15:27:21;;;;;;;0.43;0.43;;;;;;;13.44;56.76;97724.41;6247285;22;20007;-86
2022/02/07 15:29:47;;;;;;;0.00;0.00;;;;;;;13.39;57.25;97723.78;6247353;22;19999;-85
2022/02/07 15:32:30;;;;;;;0.00;0.00;;;;;;;13.35;57.29;97726.31;6247152;22;20134;-86
2022/02/07 15:35:02;;;;;;;0.00;0.00;;;;;;;13.31;57.44;97721.94;6247786;22;20015;-84
2022/02/07 15:37:29;;;;;;;0.10;0.10;;;;;;;13.26;57.87;97718.31;6248891;22;20042;-85
2022/02/07 15:39:56;;;;;;;0.00;0.00;;;;;;;13.19;58.02;97715.38;6246536;22;20004;-86
2022/02/07 15:42:22;;;;;;;0.10;0.10;;;;;;;13.18;57.90;97724.53;6247395;22;20011;-86
2022/02/07 15:44:49;;;;;;;0.00;0.00;;;;;;;13.16;58.13;97725.97;6247357;22;20038;-86
2022/02/07 15:47:14;;;;;;;0.30;0.30;;;;;;;13.09;57.92;97729.19;6246693;22;20011;-85
2022/02/07 15:49:40;;;;;;;0.00;0.00;;;;;;;13.05;58.11;97722.88;6247074;22;20086;-85
2022/02/07 15:52:06;;;;;;;0.00;0.00;;;;;;;13.01;57.88;97724.63;6246971;22;20004;-85
2022/02/07 15:54:36;;;;;;;0.20;0.20;;;;;;;13.02;57.84;97728.91;6247044;22;20004;-85
2022/02/07 15:57:03;;;;;;;0.00;0.00;;;;;;;12.98;58.03;97728.75;6246809;22;20007;-86
2022/02/07 15:59:28;;;;;;;0.00;0.00;;;;;;;12.93;57.69;97729.72;6247059;22;20000;-86
2022/02/07 16:01:55;;;;;;;0.57;0.57;;;;;;;12.90;57.57;97729.59;6246751;22;20081;-79
2022/02/07 16:04:21;;;;;;;0.00;0.00;;;;;;;12.88;57.75;97723.78;6246834;22;20000;-84
2022/02/07 16:06:46;;;;;;;0.00;0.00;;;;;;;12.86;57.51;97728.66;6272795;22;20012;-83
2022/02/07 16:09:12;;;;;;;0.28;0.28;;;;;;;12.81;58.03;97726.94;6246791;22;20008;-86
2022/02/07 16:11:37;;;;;;;0.00;0.00;;;;;;;12.81;57.78;97732.31;6247188;22;20444;-90
2022/02/07 16:14:06;;;;;;;0.00;0.00;;;;;;;12.79;57.89;97738.00;6247374;22;20011;-89
2022/02/07 16:16:31;;;;;;;0.00;0.00;;;;;;;12.76;57.82;97733.28;6247252;22;20087;-87
2022/02/07 16:18:58;;;;;;;0.00;0.00;;;;;;;12.75;57.66;97744.34;6246958;22;20046;-88
2022/02/07 16:21:23;;;;;;;0.38;0.38;;;;;;;12.72;57.57;97742.28;6246571;22;20621;-90
2022/02/07 16:23:49;;;;;;;0.00;0.00;;;;;;;12.67;57.84;97751.31;6247325;22;20003;-87
2022/02/07 16:26:15;;;;;;;0.00;0.00;;;;;;;12.60;57.87;97754.47;6246668;22;20011;-84
2022/02/07 16:28:41;;;;;;;0.75;0.55;;;;;;;12.61;58.11;97756.06;6247334;22;20007;-88
2022/02/07 16:31:07;;;;;;;1.20;0.75;;;;;;;12.52;58.34;97752.59;6246791;22;20429;-78
2022/02/07 16:33:33;;;;;;;0.00;0.00;;;;;;;12.46;58.40;97753.88;6247151;22;20004;-81
2022/02/07 16:36:02;;;;;;;0.28;0.28;;;;;;;12.34;58.61;97757.25;6246741;22;20441;-83
2022/02/07 16:38:28;;;;;;;0.10;0.10;;;;;;;12.28;57.98;97761.97;6273882;22;20011;-79
2022/02/07 16:40:53;;;;;;;0.00;0.00;;;;;;;12.22;58.35;97757.09;6273700;22;20421;-83
2022/02/07 16:43:21;;;;;;;0.00;0.00;;;;;;;12.16;58.06;97765.31;6272104;22;20003;-83
2022/02/07 16:48:14;;;;;;;0.50;0.50;;;;;;;12.06;58.25;97760.28;6273373;22;20476;-76
2022/02/07 16:50:40;;;;;;;0.10;0.10;;;;;;;12.06;58.25;97768.31;6273545;22;20008;-78
2022/02/07 16:53:06;;;;;;;0.00;0.00;;;;;;;12.01;58.20;97761.22;6246344;22;20061;-79
2022/02/07 16:55:31;;;;;;;0.20;0.20;;;;;;;11.96;58.29;97768.59;6246886;22;20425;-78
2022/02/07 16:57:57;;;;;;;0.00;0.00;;;;;;;11.91;58.82;97772.22;6246371;22;20573;-78
2022/02/07 17:00:24;;;;;;;0.00;0.00;;;;;;;11.90;58.48;97764.50;6273346;22;20000;-81
2022/02/07 17:02:49;;;;;;;0.08;0.08;;;;;;;11.90;57.96;97767.19;6246087;22;20007;-80
2022/02/07 17:05:16;;;;;;;0.25;0.08;;;;;;;11.94;58.13;97776.97;6246396;22;20858;-83
2022/02/07 17:07:46;;;;;;;0.10;0.10;;;;;;;11.94;58.52;97774.28;6246712;22;20038;-81
2022/02/07 17:10:13;;;;;;;0.17;0.17;;;;;;;11.92;57.97;97770.34;6246178;22;20010;-79
2022/02/07 17:12:38;;;;;;;0.10;0.10;;;;;;;11.92;57.99;97776.47;6246676;22;20012;-79
2022/02/07 17:15:04;;;;;;;0.10;0.10;;;;;;;11.92;57.97;97770.34;6243811;22;20061;-84
2022/02/07 17:17:31;;;;;;;0.40;0.40;;;;;;;11.92;57.76;97773.03;6245736;22;20075;-83
2022/02/07 17:19:58;;;;;;;0.00;0.00;;;;;;;11.91;57.58;97782.16;6245356;22;20433;-79
2022/02/07 17:22:24;;;;;;;0.00;0.00;;;;;;;11.90;57.56;97773.34;6246274;22;20004;-83
2022/02/07 17:24:51;;;;;;;0.00;0.00;;;;;;;11.91;58.01;97784.84;6245722;22;20444;-84
2022/02/07 17:27:17;;;;;;;0.00;0.00;;;;;;;11.93;57.35;97785.31;6245360;22;20033;-79
2022/02/07 17:29:42;;;;;;;0.10;0.10;;;;;;;11.91;58.01;97774.13;6246484;22;20452;-87
2022/02/07 17:32:09;;;;;;;0.00;0.00;;;;;;;11.93;58.39;97791.47;6246640;22;20015;-90
2022/02/07 17:34:35;;;;;;;0.30;0.30;;;;;;;11.91;58.25;97793.66;6198010;22;20004;-85
2022/02/07 17:37:00;;;;;;;0.00;0.00;;;;;;;11.91;58.76;97790.97;6247704;22;20085;-85
2022/02/07 17:39:26;;;;;;;0.20;0.20;;;;;;;11.89;58.71;97795.06;6248134;22;20011;-81
2022/02/07 17:41:52;;;;;;;0.00;0.00;;;;;;;11.87;59.35;97798.06;6248345;22;20055;-83
2022/02/07 17:44:18;;;;;;;0.00;0.00;;;;;;;11.83;58.76;97797.91;6247384;22;20003;-85
2022/02/07 17:46:47;;;;;;;0.00;0.00;;;;;;;11.82;59.40;97793.66;6248676;22;20135;-92
2022/02/07 17:49:15;;;;;;;0.00;0.00;;;;;;;11.76;58.90;97792.25;6247574;22;20012;-91
2022/02/07 17:51:58;;;;;;;0.00;0.00;;;;;;;11.74;58.69;97799.03;6248866;22;20003;-94
2022/02/07 17:54:44;;;;;;;0.00;0.00;;;;;;;11.70;59.15;97788.16;6249035;22;20002;-94
2022/02/07 17:57:12;;;;;;;0.00;0.00;;;;;;;11.67;58.58;97797.59;6275791;22;19996;-90
2022/02/07 17:59:37;;;;;;;0.00;0.00;;;;;;;11.67;58.86;97802.19;6224037;22;20018;-92